createdAt,value
2019-03-27T00:03:43.221Z,3.50
2019-03-27T00:08:47.547Z,3.50
2019-03-27T00:13:52.121Z,3.40
2019-03-27T00:18:55.425Z,3.40
2019-03-27T00:24:01.450Z,3.40
2019-03-27T00:29:05.727Z,3.50
2019-03-27T00:34:12.740Z,3.50
2019-03-27T00:39:17.550Z,3.50
2019-03-27T00:44:25.011Z,3.50
2019-03-27T00:49:29.770Z,3.60
2019-03-27T00:54:34.337Z,3.50
2019-03-27T00:59:38.439Z,3.50
2019-03-27T01:04:42.983Z,3.50
2019-03-27T01:09:46.177Z,3.60
2019-03-27T01:14:50.925Z,3.70
2019-03-27T01:19:55.224Z,3.80
2019-03-27T01:24:59.791Z,3.90
2019-03-27T01:30:03.007Z,4.00
2019-03-27T01:35:07.447Z,4.10
2019-03-27T01:40:12.098Z,4.10
2019-03-27T01:45:16.418Z,4.10
2019-03-27T01:50:21.108Z,4.20
2019-03-27T01:55:25.859Z,4.20
2019-03-27T02:00:30.458Z,4.20
2019-03-27T02:05:33.635Z,4.20
2019-03-27T02:10:38.295Z,4.20
2019-03-27T02:15:42.668Z,4.20
2019-03-27T02:20:47.080Z,4.10
2019-03-27T02:25:51.423Z,4.10
2019-03-27T02:30:55.802Z,4.20
2019-03-27T02:36:00.366Z,4.10
2019-03-27T02:41:04.645Z,4.20
2019-03-27T02:46:23.761Z,4.20
2019-03-27T02:51:15.254Z,4.20
2019-03-27T02:56:19.893Z,4.20
2019-03-27T03:01:23.105Z,4.20
2019-03-27T03:06:27.657Z,4.20
2019-03-27T03:11:30.939Z,4.10
2019-03-27T03:16:42.824Z,4.20
2019-03-27T03:21:41.796Z,4.20
2019-03-27T03:26:50.252Z,4.20
2019-03-27T03:31:53.375Z,4.20
2019-03-27T03:36:58.061Z,4.00
2019-03-27T03:42:02.980Z,3.90
2019-03-27T03:47:07.406Z,3.80
2019-03-27T03:52:12.059Z,3.90
2019-03-27T03:57:15.595Z,3.90
2019-03-27T04:02:20.031Z,3.90
2019-03-27T04:07:25.072Z,3.90
2019-03-27T04:12:29.361Z,3.90
2019-03-27T04:17:33.629Z,3.80
2019-03-27T04:22:38.109Z,3.70
2019-03-27T04:27:42.739Z,3.70
2019-03-27T04:32:45.955Z,3.60
2019-03-27T04:37:50.259Z,3.60
2019-03-27T04:42:54.842Z,3.70
2019-03-27T04:47:58.084Z,3.80
2019-03-27T04:53:02.667Z,4.00
2019-03-27T04:58:07.146Z,4.10
2019-03-27T05:03:13.134Z,4.20
2019-03-27T05:08:17.462Z,4.30
2019-03-27T05:13:21.709Z,4.40
2019-03-27T05:18:26.261Z,4.50
2019-03-27T05:23:29.767Z,4.50
2019-03-27T05:28:36.256Z,4.50
2019-03-27T05:33:40.902Z,4.60
2019-03-27T05:38:46.890Z,4.60
2019-03-27T05:43:51.157Z,4.70
2019-03-27T05:48:55.586Z,4.70
2019-03-27T05:54:00.199Z,4.70
2019-03-27T05:59:03.422Z,4.80
2019-03-27T06:04:08.514Z,4.80
2019-03-27T06:09:13.134Z,4.90
2019-03-27T06:14:16.425Z,4.90
2019-03-27T06:19:20.766Z,5.00
2019-03-27T06:24:25.127Z,5.00
2019-03-27T06:29:29.530Z,5.10
2019-03-27T06:34:44.667Z,5.10
2019-03-27T06:39:48.944Z,5.20
2019-03-27T06:44:53.261Z,5.20
2019-03-27T06:49:57.608Z,5.30
2019-03-27T06:55:02.202Z,5.30
2019-03-27T07:00:06.323Z,5.40
2019-03-27T07:05:12.845Z,5.50
2019-03-27T07:10:17.113Z,5.50
2019-03-27T07:15:21.761Z,5.60
2019-03-27T07:20:26.196Z,5.70
2019-03-27T07:25:30.582Z,5.90
2019-03-27T07:30:34.965Z,6.00
2019-03-27T07:35:39.775Z,6.00
2019-03-27T07:40:44.161Z,6.10
2019-03-27T07:45:48.506Z,6.10
2019-03-27T07:50:53.172Z,6.20
2019-03-27T07:55:56.319Z,6.30
2019-03-27T08:01:01.491Z,6.30
2019-03-27T08:06:05.892Z,6.30
2019-03-27T08:11:10.465Z,6.40
2019-03-27T08:16:13.635Z,6.50
2019-03-27T08:21:18.359Z,6.60
2019-03-27T08:26:23.092Z,6.60
2019-03-27T08:31:27.906Z,6.80
2019-03-27T08:36:32.238Z,7.20
2019-03-27T08:41:36.837Z,7.50
2019-03-27T08:46:41.683Z,7.80
2019-03-27T08:51:46.960Z,7.90
2019-03-27T08:56:51.247Z,8.10
2019-03-27T09:01:55.926Z,8.20
2019-03-27T09:06:59.115Z,8.40
2019-03-27T09:12:05.264Z,8.80
2019-03-27T09:17:09.581Z,9.10
2019-03-27T09:22:14.279Z,9.50
2019-03-27T09:27:18.638Z,9.80
2019-03-27T09:32:23.211Z,10.00
2019-03-27T09:37:27.784Z,10.20
2019-03-27T09:42:32.128Z,10.30
2019-03-27T09:47:36.508Z,10.70
2019-03-27T09:52:40.792Z,11.70
2019-03-27T09:57:45.161Z,11.90
2019-03-27T10:02:49.762Z,12.30
2019-03-27T10:07:55.582Z,12.60
2019-03-27T10:12:59.886Z,13.10
2019-03-27T10:18:04.312Z,14.10
2019-03-27T10:23:13.050Z,14.20
2019-03-27T10:28:17.368Z,14.20
2019-03-27T10:33:23.867Z,14.30
2019-03-27T10:38:28.468Z,14.50
2019-03-27T10:43:32.805Z,14.60
2019-03-27T10:48:37.127Z,14.60
2019-03-27T10:53:41.483Z,14.70
2019-03-27T10:58:45.797Z,14.50
2019-03-27T11:03:50.164Z,14.40
2019-03-27T11:08:54.710Z,14.40
2019-03-27T11:13:59.000Z,14.40
2019-03-27T11:19:03.577Z,15.10
2019-03-27T11:24:07.819Z,16.10
2019-03-27T11:29:12.107Z,16.10
2019-03-27T11:34:16.687Z,15.70
2019-03-27T11:39:21.023Z,15.80
2019-03-27T11:44:25.290Z,15.20
2019-03-27T11:49:30.309Z,14.80
2019-03-27T11:54:34.680Z,14.60
2019-03-27T11:59:53.000Z,14.30
2019-03-27T12:04:45.901Z,13.90
2019-03-27T12:09:50.523Z,13.50
2019-03-27T12:14:54.938Z,13.60
2019-03-27T12:20:00.235Z,13.70
2019-03-27T12:25:07.598Z,14.30
2019-03-27T12:30:12.027Z,15.00
2019-03-27T12:35:16.535Z,15.30
2019-03-27T12:40:20.821Z,15.20
2019-03-27T12:45:25.899Z,15.10
2019-03-27T12:50:30.209Z,15.00
2019-03-27T12:55:35.508Z,14.70
2019-03-27T13:00:42.482Z,14.70
2019-03-27T13:05:46.936Z,14.60
2019-03-27T13:10:51.223Z,14.60
2019-03-27T13:15:55.509Z,14.70
2019-03-27T13:20:59.790Z,14.70
2019-03-27T13:26:04.351Z,14.40
2019-03-27T13:31:09.073Z,14.30
2019-03-27T13:36:12.247Z,14.40
2019-03-27T13:41:18.467Z,14.50
2019-03-27T13:46:22.582Z,14.50
2019-03-27T13:51:39.767Z,14.50
2019-03-27T13:56:33.259Z,14.40
2019-03-27T14:01:37.871Z,14.20
2019-03-27T14:06:44.736Z,14.20
2019-03-27T14:11:48.875Z,14.10
2019-03-27T14:16:53.190Z,14.00
2019-03-27T14:21:59.844Z,14.00
2019-03-27T14:27:07.197Z,14.10
2019-03-27T14:32:11.492Z,14.20
2019-03-27T14:37:15.826Z,14.10
2019-03-27T14:42:20.132Z,14.00
2019-03-27T14:47:24.462Z,13.80
2019-03-27T14:52:28.986Z,13.60
2019-03-27T14:57:34.073Z,13.40
2019-03-27T15:02:39.082Z,13.20
2019-03-27T15:07:44.230Z,13.00
2019-03-27T15:12:48.539Z,12.80
2019-03-27T15:17:52.871Z,12.80
2019-03-27T15:22:57.272Z,12.70
2019-03-27T15:28:01.956Z,12.60
2019-03-27T15:33:05.241Z,12.50
2019-03-27T15:38:09.980Z,12.50
2019-03-27T15:43:14.251Z,12.40
2019-03-27T15:48:18.973Z,12.20
2019-03-27T15:53:22.167Z,12.00
2019-03-27T15:58:26.883Z,11.90
2019-03-27T16:03:31.188Z,11.70
2019-03-27T16:08:35.820Z,11.50
2019-03-27T16:13:41.306Z,11.40
2019-03-27T16:18:46.106Z,11.20
2019-03-27T16:23:49.512Z,11.10
2019-03-27T16:28:54.315Z,11.10
2019-03-27T16:33:57.623Z,11.00
2019-03-27T16:39:02.153Z,10.90
2019-03-27T16:44:06.497Z,10.80
2019-03-27T16:49:11.342Z,10.70
2019-03-27T16:54:15.807Z,10.60
2019-03-27T16:59:20.144Z,10.50
2019-03-27T17:04:25.325Z,10.50
2019-03-27T17:09:29.819Z,10.40
2019-03-27T17:14:34.278Z,10.20
2019-03-27T17:19:38.911Z,10.10
2019-03-27T17:24:43.214Z,10.00
2019-03-27T17:29:47.833Z,9.90
2019-03-27T17:34:52.178Z,9.80
2019-03-27T17:39:57.365Z,9.70
2019-03-27T17:45:01.754Z,9.70
2019-03-27T17:50:06.339Z,9.70
2019-03-27T17:55:11.122Z,9.70
2019-03-27T18:00:20.867Z,9.70
2019-03-27T18:05:26.476Z,9.70
2019-03-27T18:10:31.122Z,9.70
2019-03-27T18:15:35.691Z,9.60
2019-03-27T18:20:40.052Z,9.60
2019-03-27T18:25:44.762Z,9.60
2019-03-27T18:30:49.663Z,9.50
2019-03-27T18:35:54.409Z,9.50
2019-03-27T18:40:58.537Z,9.40
2019-03-27T18:46:02.842Z,9.40
2019-03-27T18:51:07.187Z,9.30
2019-03-27T18:56:12.171Z,9.20
2019-03-27T19:01:16.467Z,9.10
2019-03-27T19:06:20.857Z,9.10
2019-03-27T19:11:25.218Z,9.00
2019-03-27T19:16:29.984Z,9.00
2019-03-27T19:21:33.507Z,9.00
2019-03-27T19:26:37.872Z,9.00
2019-03-27T19:31:42.252Z,9.00
2019-03-27T19:36:46.620Z,9.10
2019-03-27T19:42:01.344Z,9.10
2019-03-27T19:47:06.835Z,9.10
2019-03-27T19:52:11.140Z,9.10
2019-03-27T19:57:15.515Z,9.20
2019-03-27T20:02:19.918Z,9.20
2019-03-27T20:07:35.375Z,9.20
2019-03-27T20:12:30.597Z,9.20
2019-03-27T20:17:35.672Z,9.20
2019-03-27T20:22:40.224Z,9.20
2019-03-27T20:27:45.484Z,9.20
2019-03-27T20:32:50.100Z,9.20
2019-03-27T20:37:54.709Z,9.20
2019-03-27T20:42:59.053Z,9.10
2019-03-27T20:48:03.364Z,9.10
2019-03-27T20:53:07.951Z,9.10
2019-03-27T20:58:12.417Z,9.00
2019-03-27T21:03:22.112Z,9.00
2019-03-27T21:08:28.759Z,9.00
2019-03-27T21:13:35.881Z,9.00
2019-03-27T21:18:40.388Z,9.00
2019-03-27T21:23:47.920Z,9.00
2019-03-27T21:28:54.408Z,9.00
2019-03-27T21:33:59.752Z,8.90
2019-03-27T21:39:08.043Z,8.90
2019-03-27T21:44:13.508Z,8.90
2019-03-27T21:49:18.246Z,8.90
2019-03-27T21:54:21.603Z,8.90
2019-03-27T21:59:26.498Z,8.90
2019-03-27T22:04:32.059Z,8.90
2019-03-27T22:09:37.044Z,8.90
2019-03-27T22:14:43.323Z,8.90
2019-03-27T22:19:48.098Z,8.80
2019-03-27T22:24:51.879Z,8.80
2019-03-27T22:29:56.205Z,8.80
2019-03-27T22:35:02.668Z,8.80
2019-03-27T22:40:08.804Z,8.80
2019-03-27T22:45:13.158Z,8.70
2019-03-27T22:50:17.805Z,8.70
2019-03-27T22:55:23.599Z,8.70
2019-03-27T23:00:37.729Z,8.70
2019-03-27T23:05:42.135Z,8.60
2019-03-27T23:10:46.857Z,8.70
2019-03-27T23:15:50.472Z,8.60
2019-03-27T23:20:54.927Z,8.60
2019-03-27T23:26:03.336Z,8.50
2019-03-27T23:31:05.794Z,8.50
2019-03-27T23:36:10.283Z,8.40
2019-03-27T23:41:18.203Z,8.40
2019-03-27T23:46:23.433Z,8.30
2019-03-27T23:51:27.799Z,8.30
2019-03-27T23:56:33.821Z,8.20
